sensor_id;sensor_type;location;lat;lon;timestamp;P1;durP1;ratioP1;P2;durP2;ratioP2
63818;SDS011;49970;54.976;73.248;2022-12-17T00:02:43;194.57;;;70.82;;
63818;SDS011;49970;54.976;73.248;2022-12-17T00:05:27;193.55;;;68.60;;
63818;SDS011;49970;54.976;73.248;2022-12-17T00:08:11;187.73;;;72.78;;
63818;SDS011;49970;54.976;73.248;2022-12-17T00:10:56;200.02;;;72.97;;
63818;SDS011;49970;54.976;73.248;2022-12-17T00:13:41;205.77;;;72.25;;
63818;SDS011;49970;54.976;73.248;2022-12-17T00:16:26;186.18;;;74.13;;
63818;SDS011;49970;54.976;73.248;2022-12-17T00:19:10;193.05;;;70.60;;
63818;SDS011;49970;54.976;73.248;2022-12-17T00:21:55;193.18;;;67.35;;
63818;SDS011;49970;54.976;73.248;2022-12-17T00:24:39;172.23;;;68.53;;
63818;SDS011;49970;54.976;73.248;2022-12-17T00:27:24;206.27;;;79.05;;
63818;SDS011;49970;54.976;73.248;2022-12-17T00:30:11;187.35;;;68.28;;
63818;SDS011;49970;54.976;73.248;2022-12-17T00:32:56;226.57;;;74.93;;
63818;SDS011;49970;54.976;73.248;2022-12-17T00:35:51;190.70;;;68.43;;
63818;SDS011;49970;54.976;73.248;2022-12-17T00:38:37;198.48;;;72.55;;
63818;SDS011;49970;54.976;73.248;2022-12-17T00:41:22;190.48;;;71.38;;
63818;SDS011;49970;54.976;73.248;2022-12-17T00:44:17;194.77;;;66.80;;
63818;SDS011;49970;54.976;73.248;2022-12-17T00:47:02;187.52;;;71.63;;
63818;SDS011;49970;54.976;73.248;2022-12-17T00:49:47;192.70;;;75.15;;
63818;SDS011;49970;54.976;73.248;2022-12-17T00:52:32;191.30;;;75.18;;
63818;SDS011;49970;54.976;73.248;2022-12-17T00:55:16;178.90;;;69.90;;
63818;SDS011;49970;54.976;73.248;2022-12-17T00:58:01;196.32;;;73.63;;
63818;SDS011;49970;54.976;73.248;2022-12-17T01:00:46;194.52;;;74.07;;
63818;SDS011;49970;54.976;73.248;2022-12-17T01:03:31;183.40;;;74.00;;
63818;SDS011;49970;54.976;73.248;2022-12-17T01:06:15;186.77;;;66.55;;
63818;SDS011;49970;54.976;73.248;2022-12-17T01:09:00;194.13;;;71.57;;
63818;SDS011;49970;54.976;73.248;2022-12-17T01:11:46;193.30;;;70.25;;
63818;SDS011;49970;54.976;73.248;2022-12-17T01:14:31;175.98;;;69.95;;
63818;SDS011;49970;54.976;73.248;2022-12-17T01:17:16;182.05;;;70.50;;
63818;SDS011;49970;54.976;73.248;2022-12-17T01:20:01;190.32;;;68.07;;
63818;SDS011;49970;54.976;73.248;2022-12-17T01:22:46;179.57;;;65.03;;
63818;SDS011;49970;54.976;73.248;2022-12-17T01:25:30;195.65;;;71.55;;
63818;SDS011;49970;54.976;73.248;2022-12-17T01:28:23;190.40;;;72.05;;
63818;SDS011;49970;54.976;73.248;2022-12-17T01:31:09;169.75;;;67.75;;
63818;SDS011;49970;54.976;73.248;2022-12-17T01:33:54;177.75;;;64.85;;
63818;SDS011;49970;54.976;73.248;2022-12-17T01:36:39;189.88;;;69.43;;
63818;SDS011;49970;54.976;73.248;2022-12-17T01:39:24;177.88;;;66.68;;
63818;SDS011;49970;54.976;73.248;2022-12-17T01:42:11;202.60;;;69.28;;
63818;SDS011;49970;54.976;73.248;2022-12-17T01:45:01;191.00;;;69.03;;
63818;SDS011;49970;54.976;73.248;2022-12-17T01:47:48;178.93;;;68.85;;
63818;SDS011;49970;54.976;73.248;2022-12-17T01:50:41;209.90;;;74.85;;
63818;SDS011;49970;54.976;73.248;2022-12-17T01:53:35;193.13;;;69.47;;
63818;SDS011;49970;54.976;73.248;2022-12-17T01:56:24;182.60;;;63.97;;
63818;SDS011;49970;54.976;73.248;2022-12-17T01:59:11;170.50;;;67.25;;
63818;SDS011;49970;54.976;73.248;2022-12-17T02:01:57;182.77;;;65.90;;
63818;SDS011;49970;54.976;73.248;2022-12-17T02:04:41;186.20;;;67.40;;
63818;SDS011;49970;54.976;73.248;2022-12-17T02:07:31;164.85;;;61.67;;
63818;SDS011;49970;54.976;73.248;2022-12-17T02:13:34;169.60;;;62.13;;
63818;SDS011;49970;54.976;73.248;2022-12-17T02:16:34;161.73;;;59.40;;
63818;SDS011;49970;54.976;73.248;2022-12-17T02:28:47;167.73;;;60.13;;
63818;SDS011;49970;54.976;73.248;2022-12-17T02:31:35;177.07;;;65.97;;
63818;SDS011;49970;54.976;73.248;2022-12-17T02:34:24;177.73;;;63.55;;
63818;SDS011;49970;54.976;73.248;2022-12-17T02:37:09;158.10;;;58.65;;
63818;SDS011;49970;54.976;73.248;2022-12-17T02:40:04;159.45;;;60.85;;
63818;SDS011;49970;54.976;73.248;2022-12-17T02:42:54;183.65;;;65.22;;
63818;SDS011;49970;54.976;73.248;2022-12-17T02:45:40;167.27;;;62.28;;
63818;SDS011;49970;54.976;73.248;2022-12-17T02:48:25;164.43;;;57.65;;
63818;SDS011;49970;54.976;73.248;2022-12-17T02:51:10;153.48;;;60.65;;
63818;SDS011;49970;54.976;73.248;2022-12-17T02:54:00;188.07;;;63.58;;
63818;SDS011;49970;54.976;73.248;2022-12-17T02:56:46;160.82;;;60.55;;
63818;SDS011;49970;54.976;73.248;2022-12-17T02:59:42;142.35;;;52.10;;
63818;SDS011;49970;54.976;73.248;2022-12-17T03:02:31;150.55;;;56.33;;
63818;SDS011;49970;54.976;73.248;2022-12-17T03:05:16;150.43;;;59.08;;
63818;SDS011;49970;54.976;73.248;2022-12-17T03:08:00;174.75;;;57.38;;
63818;SDS011;49970;54.976;73.248;2022-12-17T03:10:45;152.20;;;54.58;;
63818;SDS011;49970;54.976;73.248;2022-12-17T03:13:35;136.05;;;52.05;;
63818;SDS011;49970;54.976;73.248;2022-12-17T03:16:19;125.50;;;49.72;;
63818;SDS011;49970;54.976;73.248;2022-12-17T03:19:09;144.15;;;52.00;;
63818;SDS011;49970;54.976;73.248;2022-12-17T03:21:53;147.68;;;55.22;;
63818;SDS011;49970;54.976;73.248;2022-12-17T03:24:48;161.38;;;54.88;;
63818;SDS011;49970;54.976;73.248;2022-12-17T03:27:43;153.77;;;56.10;;
63818;SDS011;49970;54.976;73.248;2022-12-17T03:30:28;171.18;;;65.40;;
63818;SDS011;49970;54.976;73.248;2022-12-17T03:33:17;177.38;;;68.72;;
63818;SDS011;49970;54.976;73.248;2022-12-17T03:36:07;185.52;;;71.05;;
63818;SDS011;49970;54.976;73.248;2022-12-17T03:39:02;168.18;;;67.25;;
63818;SDS011;49970;54.976;73.248;2022-12-17T03:41:52;226.57;;;74.07;;
63818;SDS011;49970;54.976;73.248;2022-12-17T03:44:47;201.77;;;75.80;;
63818;SDS011;49970;54.976;73.248;2022-12-17T03:47:36;234.73;;;78.60;;
63818;SDS011;49970;54.976;73.248;2022-12-17T03:50:31;200.27;;;85.05;;
63818;SDS011;49970;54.976;73.248;2022-12-17T03:53:15;253.35;;;90.57;;
63818;SDS011;49970;54.976;73.248;2022-12-17T03:56:00;224.48;;;80.55;;
63818;SDS011;49970;54.976;73.248;2022-12-17T03:58:45;219.05;;;83.95;;
63818;SDS011;49970;54.976;73.248;2022-12-17T04:01:34;215.85;;;86.30;;
63818;SDS011;49970;54.976;73.248;2022-12-17T04:04:19;234.30;;;85.35;;
63818;SDS011;49970;54.976;73.248;2022-12-17T04:07:13;264.65;;;87.43;;
63818;SDS011;49970;54.976;73.248;2022-12-17T04:10:02;217.50;;;79.95;;
63818;SDS011;49970;54.976;73.248;2022-12-17T04:12:47;199.55;;;74.78;;
63818;SDS011;49970;54.976;73.248;2022-12-17T04:15:32;212.20;;;80.07;;
63818;SDS011;49970;54.976;73.248;2022-12-17T04:18:26;193.38;;;70.53;;
63818;SDS011;49970;54.976;73.248;2022-12-17T04:21:21;175.00;;;70.03;;
63818;SDS011;49970;54.976;73.248;2022-12-17T04:24:05;201.82;;;75.65;;
63818;SDS011;49970;54.976;73.248;2022-12-17T04:26:50;173.95;;;62.90;;
63818;SDS011;49970;54.976;73.248;2022-12-17T04:29:34;193.30;;;70.05;;
63818;SDS011;49970;54.976;73.248;2022-12-17T04:32:27;189.93;;;72.32;;
63818;SDS011;49970;54.976;73.248;2022-12-17T04:35:11;184.98;;;65.60;;
63818;SDS011;49970;54.976;73.248;2022-12-17T04:37:56;217.27;;;77.75;;
63818;SDS011;49970;54.976;73.248;2022-12-17T04:40:40;175.90;;;70.80;;
63818;SDS011;49970;54.976;73.248;2022-12-17T04:43:29;190.55;;;74.75;;
63818;SDS011;49970;54.976;73.248;2022-12-17T04:46:23;179.45;;;70.47;;
63818;SDS011;49970;54.976;73.248;2022-12-17T04:49:07;262.55;;;97.85;;
63818;SDS011;49970;54.976;73.248;2022-12-17T04:51:52;211.02;;;76.68;;
63818;SDS011;49970;54.976;73.248;2022-12-17T04:54:36;195.65;;;72.50;;
63818;SDS011;49970;54.976;73.248;2022-12-17T04:57:31;197.68;;;73.80;;
63818;SDS011;49970;54.976;73.248;2022-12-17T05:00:16;202.50;;;73.40;;
63818;SDS011;49970;54.976;73.248;2022-12-17T05:03:05;193.23;;;74.35;;
63818;SDS011;49970;54.976;73.248;2022-12-17T05:05:51;202.30;;;75.07;;
63818;SDS011;49970;54.976;73.248;2022-12-17T05:08:38;210.52;;;79.25;;
63818;SDS011;49970;54.976;73.248;2022-12-17T05:11:23;213.05;;;87.60;;
63818;SDS011;49970;54.976;73.248;2022-12-17T05:14:17;187.35;;;75.20;;
63818;SDS011;49970;54.976;73.248;2022-12-17T05:17:02;208.80;;;82.15;;
63818;SDS011;49970;54.976;73.248;2022-12-17T05:19:46;213.77;;;87.82;;
63818;SDS011;49970;54.976;73.248;2022-12-17T05:22:33;221.88;;;87.63;;
63818;SDS011;49970;54.976;73.248;2022-12-17T05:25:18;205.80;;;83.57;;
63818;SDS011;49970;54.976;73.248;2022-12-17T05:28:09;216.25;;;86.60;;
63818;SDS011;49970;54.976;73.248;2022-12-17T05:30:54;213.88;;;81.32;;
63818;SDS011;49970;54.976;73.248;2022-12-17T05:33:44;223.90;;;86.75;;
63818;SDS011;49970;54.976;73.248;2022-12-17T05:36:29;246.25;;;97.13;;
63818;SDS011;49970;54.976;73.248;2022-12-17T05:39:13;281.48;;;109.22;;
63818;SDS011;49970;54.976;73.248;2022-12-17T05:41:58;248.52;;;102.25;;
63818;SDS011;49970;54.976;73.248;2022-12-17T05:44:42;275.83;;;115.15;;
63818;SDS011;49970;54.976;73.248;2022-12-17T05:47:27;288.25;;;121.55;;
63818;SDS011;49970;54.976;73.248;2022-12-17T05:50:14;303.80;;;119.50;;
63818;SDS011;49970;54.976;73.248;2022-12-17T05:53:00;372.80;;;139.88;;
63818;SDS011;49970;54.976;73.248;2022-12-17T05:55:59;330.90;;;129.18;;
63818;SDS011;49970;54.976;73.248;2022-12-17T05:58:44;325.95;;;123.15;;
63818;SDS011;49970;54.976;73.248;2022-12-17T06:01:29;319.80;;;133.18;;
63818;SDS011;49970;54.976;73.248;2022-12-17T06:04:23;329.13;;;137.35;;
63818;SDS011;49970;54.976;73.248;2022-12-17T06:07:13;268.88;;;123.85;;
63818;SDS011;49970;54.976;73.248;2022-12-17T06:09:57;307.38;;;126.05;;
63818;SDS011;49970;54.976;73.248;2022-12-17T06:12:42;271.50;;;112.15;;
63818;SDS011;49970;54.976;73.248;2022-12-17T06:15:26;253.98;;;106.90;;
63818;SDS011;49970;54.976;73.248;2022-12-17T06:18:15;241.70;;;103.40;;
63818;SDS011;49970;54.976;73.248;2022-12-17T06:21:00;226.23;;;88.53;;
63818;SDS011;49970;54.976;73.248;2022-12-17T06:23:46;210.82;;;84.05;;
63818;SDS011;49970;54.976;73.248;2022-12-17T06:26:30;216.10;;;86.65;;
63818;SDS011;49970;54.976;73.248;2022-12-17T06:29:15;234.45;;;92.15;;
63818;SDS011;49970;54.976;73.248;2022-12-17T06:31:59;199.75;;;78.90;;
63818;SDS011;49970;54.976;73.248;2022-12-17T06:34:53;186.00;;;65.95;;
63818;SDS011;49970;54.976;73.248;2022-12-17T06:37:38;194.40;;;71.47;;
63818;SDS011;49970;54.976;73.248;2022-12-17T06:40:22;188.13;;;76.40;;
63818;SDS011;49970;54.976;73.248;2022-12-17T06:43:17;181.45;;;65.05;;
63818;SDS011;49970;54.976;73.248;2022-12-17T06:46:01;170.95;;;68.05;;
63818;SDS011;49970;54.976;73.248;2022-12-17T06:48:45;173.05;;;69.05;;
63818;SDS011;49970;54.976;73.248;2022-12-17T06:51:30;176.07;;;73.20;;
63818;SDS011;49970;54.976;73.248;2022-12-17T06:54:14;185.77;;;80.43;;
63818;SDS011;49970;54.976;73.248;2022-12-17T06:56:59;203.43;;;81.22;;
63818;SDS011;49970;54.976;73.248;2022-12-17T06:59:43;314.92;;;113.55;;
63818;SDS011;49970;54.976;73.248;2022-12-17T07:02:28;312.15;;;128.63;;
63818;SDS011;49970;54.976;73.248;2022-12-17T07:05:12;273.50;;;112.10;;
63818;SDS011;49970;54.976;73.248;2022-12-17T07:07:57;278.35;;;107.70;;
63818;SDS011;49970;54.976;73.248;2022-12-17T07:10:51;216.88;;;78.63;;
63818;SDS011;49970;54.976;73.248;2022-12-17T07:13:35;192.80;;;71.13;;
63818;SDS011;49970;54.976;73.248;2022-12-17T07:16:21;173.45;;;64.93;;
63818;SDS011;49970;54.976;73.248;2022-12-17T07:19:10;188.02;;;75.90;;
63818;SDS011;49970;54.976;73.248;2022-12-17T07:21:55;206.75;;;80.13;;
63818;SDS011;49970;54.976;73.248;2022-12-17T07:24:40;206.07;;;76.22;;
63818;SDS011;49970;54.976;73.248;2022-12-17T07:27:30;174.13;;;65.60;;
63818;SDS011;49970;54.976;73.248;2022-12-17T07:30:14;165.73;;;66.38;;
63818;SDS011;49970;54.976;73.248;2022-12-17T07:33:05;148.38;;;61.08;;
63818;SDS011;49970;54.976;73.248;2022-12-17T07:35:54;146.18;;;59.55;;
63818;SDS011;49970;54.976;73.248;2022-12-17T07:38:39;156.88;;;59.65;;
63818;SDS011;49970;54.976;73.248;2022-12-17T07:41:24;167.23;;;61.38;;
63818;SDS011;49970;54.976;73.248;2022-12-17T07:44:09;138.23;;;51.80;;
63818;SDS011;49970;54.976;73.248;2022-12-17T07:46:54;142.75;;;51.97;;
63818;SDS011;49970;54.976;73.248;2022-12-17T07:49:48;149.43;;;50.78;;
63818;SDS011;49970;54.976;73.248;2022-12-17T07:52:37;147.65;;;49.97;;
63818;SDS011;49970;54.976;73.248;2022-12-17T07:55:21;151.68;;;52.67;;
63818;SDS011;49970;54.976;73.248;2022-12-17T07:58:08;164.02;;;55.45;;
63818;SDS011;49970;54.976;73.248;2022-12-17T08:00:59;163.60;;;58.92;;
63818;SDS011;49970;54.976;73.248;2022-12-17T08:03:45;167.05;;;60.03;;
63818;SDS011;49970;54.976;73.248;2022-12-17T08:06:30;154.05;;;57.47;;
63818;SDS011;49970;54.976;73.248;2022-12-17T08:09:14;164.88;;;61.72;;
63818;SDS011;49970;54.976;73.248;2022-12-17T08:12:00;165.80;;;54.95;;
63818;SDS011;49970;54.976;73.248;2022-12-17T08:14:50;147.52;;;54.28;;
63818;SDS011;49970;54.976;73.248;2022-12-17T08:18:41;125.70;;;51.13;;
63818;SDS011;49970;54.976;73.248;2022-12-17T08:21:26;121.18;;;43.13;;
63818;SDS011;49970;54.976;73.248;2022-12-17T08:24:10;124.65;;;43.47;;
63818;SDS011;49970;54.976;73.248;2022-12-17T08:26:54;112.32;;;43.83;;
63818;SDS011;49970;54.976;73.248;2022-12-17T08:29:40;109.90;;;42.75;;
63818;SDS011;49970;54.976;73.248;2022-12-17T08:32:31;125.03;;;44.92;;
63818;SDS011;49970;54.976;73.248;2022-12-17T08:36:20;131.20;;;45.92;;
63818;SDS011;49970;54.976;73.248;2022-12-17T08:39:51;146.23;;;48.83;;
63818;SDS011;49970;54.976;73.248;2022-12-17T08:42:46;150.85;;;50.92;;
63818;SDS011;49970;54.976;73.248;2022-12-17T08:45:35;156.10;;;54.60;;
63818;SDS011;49970;54.976;73.248;2022-12-17T08:48:30;146.45;;;53.90;;
63818;SDS011;49970;54.976;73.248;2022-12-17T08:51:15;167.05;;;60.28;;
63818;SDS011;49970;54.976;73.248;2022-12-17T08:53:59;164.55;;;65.00;;
63818;SDS011;49970;54.976;73.248;2022-12-17T08:56:44;154.18;;;62.75;;
63818;SDS011;49970;54.976;73.248;2022-12-17T08:59:29;178.18;;;65.28;;
63818;SDS011;49970;54.976;73.248;2022-12-17T09:02:13;170.25;;;68.07;;
63818;SDS011;49970;54.976;73.248;2022-12-17T09:04:58;173.55;;;67.88;;
63818;SDS011;49970;54.976;73.248;2022-12-17T09:07:46;147.65;;;62.45;;
63818;SDS011;49970;54.976;73.248;2022-12-17T09:10:31;161.50;;;60.05;;
63818;SDS011;49970;54.976;73.248;2022-12-17T09:13:16;183.75;;;65.80;;
63818;SDS011;49970;54.976;73.248;2022-12-17T09:16:01;184.68;;;70.22;;
63818;SDS011;49970;54.976;73.248;2022-12-17T09:18:55;172.63;;;62.22;;
63818;SDS011;49970;54.976;73.248;2022-12-17T09:21:40;168.70;;;63.80;;
63818;SDS011;49970;54.976;73.248;2022-12-17T09:24:30;173.20;;;63.05;;
63818;SDS011;49970;54.976;73.248;2022-12-17T09:27:24;151.05;;;58.33;;
63818;SDS011;49970;54.976;73.248;2022-12-17T09:30:09;165.50;;;62.92;;
63818;SDS011;49970;54.976;73.248;2022-12-17T09:32:55;189.18;;;73.63;;
63818;SDS011;49970;54.976;73.248;2022-12-17T09:35:39;202.90;;;75.70;;
63818;SDS011;49970;54.976;73.248;2022-12-17T09:38:24;194.85;;;77.57;;
63818;SDS011;49970;54.976;73.248;2022-12-17T09:41:28;200.15;;;77.20;;
63818;SDS011;49970;54.976;73.248;2022-12-17T09:44:35;212.02;;;80.05;;
63818;SDS011;49970;54.976;73.248;2022-12-17T09:50:26;153.32;;;48.80;;
63818;SDS011;49970;54.976;73.248;2022-12-17T09:53:27;144.50;;;52.00;;
63818;SDS011;49970;54.976;73.248;2022-12-17T09:56:14;143.32;;;50.08;;
63818;SDS011;49970;54.976;73.248;2022-12-17T09:59:00;123.30;;;50.65;;
63818;SDS011;49970;54.976;73.248;2022-12-17T10:01:54;141.55;;;45.83;;
63818;SDS011;49970;54.976;73.248;2022-12-17T10:04:39;132.38;;;50.55;;
63818;SDS011;49970;54.976;73.248;2022-12-17T10:07:30;150.73;;;59.03;;
63818;SDS011;49970;54.976;73.248;2022-12-17T10:10:18;148.82;;;56.03;;
63818;SDS011;49970;54.976;73.248;2022-12-17T10:13:26;170.18;;;57.00;;
63818;SDS011;49970;54.976;73.248;2022-12-17T10:16:18;155.38;;;53.00;;
63818;SDS011;49970;54.976;73.248;2022-12-17T10:19:12;141.60;;;51.05;;
63818;SDS011;49970;54.976;73.248;2022-12-17T10:22:06;169.15;;;54.78;;
63818;SDS011;49970;54.976;73.248;2022-12-17T10:24:55;164.77;;;67.45;;
63818;SDS011;49970;54.976;73.248;2022-12-17T10:27:40;166.75;;;58.38;;
63818;SDS011;49970;54.976;73.248;2022-12-17T10:30:26;140.30;;;57.70;;
63818;SDS011;49970;54.976;73.248;2022-12-17T10:33:18;139.75;;;50.90;;
63818;SDS011;49970;54.976;73.248;2022-12-17T10:36:19;135.15;;;49.30;;
63818;SDS011;49970;54.976;73.248;2022-12-17T10:39:05;138.90;;;50.95;;
63818;SDS011;49970;54.976;73.248;2022-12-17T10:42:43;174.30;;;56.53;;
63818;SDS011;49970;54.976;73.248;2022-12-17T10:45:34;159.63;;;57.63;;
63818;SDS011;49970;54.976;73.248;2022-12-17T10:48:28;131.20;;;52.35;;
63818;SDS011;49970;54.976;73.248;2022-12-17T10:51:19;145.80;;;54.65;;
63818;SDS011;49970;54.976;73.248;2022-12-17T10:57:22;156.45;;;56.42;;
63818;SDS011;49970;54.976;73.248;2022-12-17T11:03:57;156.05;;;56.10;;
63818;SDS011;49970;54.976;73.248;2022-12-17T11:06:35;140.38;;;52.67;;
63818;SDS011;49970;54.976;73.248;2022-12-17T11:12:29;136.32;;;53.47;;
63818;SDS011;49970;54.976;73.248;2022-12-17T11:18:51;149.10;;;50.92;;
63818;SDS011;49970;54.976;73.248;2022-12-17T11:21:42;123.35;;;49.10;;
63818;SDS011;49970;54.976;73.248;2022-12-17T11:24:43;118.45;;;51.50;;
63818;SDS011;49970;54.976;73.248;2022-12-17T11:27:33;131.13;;;50.25;;
63818;SDS011;49970;54.976;73.248;2022-12-17T11:30:25;153.65;;;58.95;;
63818;SDS011;49970;54.976;73.248;2022-12-17T11:36:25;147.63;;;55.65;;
63818;SDS011;49970;54.976;73.248;2022-12-17T11:39:41;149.80;;;59.42;;
63818;SDS011;49970;54.976;73.248;2022-12-17T11:42:39;142.93;;;57.75;;
63818;SDS011;49970;54.976;73.248;2022-12-17T11:49:14;124.25;;;50.22;;
63818;SDS011;49970;54.976;73.248;2022-12-17T11:55:22;148.02;;;56.17;;
63818;SDS011;49970;54.976;73.248;2022-12-17T11:58:20;187.05;;;70.82;;
63818;SDS011;49970;54.976;73.248;2022-12-17T12:10:54;157.10;;;57.95;;
63818;SDS011;49970;54.976;73.248;2022-12-17T12:17:18;205.07;;;77.82;;
63818;SDS011;49970;54.976;73.248;2022-12-17T12:26:37;170.85;;;66.30;;
63818;SDS011;49970;54.976;73.248;2022-12-17T12:32:40;193.10;;;69.88;;
63818;SDS011;49970;54.976;73.248;2022-12-17T12:35:37;174.05;;;64.63;;
63818;SDS011;49970;54.976;73.248;2022-12-17T12:38:33;136.75;;;50.78;;
63818;SDS011;49970;54.976;73.248;2022-12-17T12:41:47;123.22;;;46.85;;
63818;SDS011;49970;54.976;73.248;2022-12-17T12:44:43;119.72;;;43.17;;
63818;SDS011;49970;54.976;73.248;2022-12-17T12:47:56;115.57;;;45.95;;
63818;SDS011;49970;54.976;73.248;2022-12-17T12:51:02;107.93;;;41.65;;
63818;SDS011;49970;54.976;73.248;2022-12-17T12:54:01;107.15;;;39.83;;
63818;SDS011;49970;54.976;73.248;2022-12-17T12:57:30;117.57;;;42.03;;
63818;SDS011;49970;54.976;73.248;2022-12-17T13:00:25;92.80;;;42.60;;
63818;SDS011;49970;54.976;73.248;2022-12-17T13:06:11;118.32;;;46.35;;
63818;SDS011;49970;54.976;73.248;2022-12-17T13:08:38;120.63;;;44.00;;
63818;SDS011;49970;54.976;73.248;2022-12-17T13:11:09;115.55;;;40.63;;
63818;SDS011;49970;54.976;73.248;2022-12-17T13:14:11;99.18;;;36.42;;
63818;SDS011;49970;54.976;73.248;2022-12-17T13:16:56;92.68;;;35.20;;
63818;SDS011;49970;54.976;73.248;2022-12-17T13:19:44;90.05;;;32.28;;
63818;SDS011;49970;54.976;73.248;2022-12-17T13:24:41;87.30;;;30.88;;
63818;SDS011;49970;54.976;73.248;2022-12-17T13:35:18;79.70;;;31.05;;
63818;SDS011;49970;54.976;73.248;2022-12-17T13:43:13;76.22;;;27.67;;
63818;SDS011;49970;54.976;73.248;2022-12-17T13:45:52;89.97;;;27.15;;
63818;SDS011;49970;54.976;73.248;2022-12-17T13:48:21;55.70;;;23.90;;
63818;SDS011;49970;54.976;73.248;2022-12-17T13:50:59;58.45;;;24.02;;
63818;SDS011;49970;54.976;73.248;2022-12-17T13:53:37;50.80;;;21.52;;
63818;SDS011;49970;54.976;73.248;2022-12-17T13:56:04;53.00;;;24.25;;
63818;SDS011;49970;54.976;73.248;2022-12-17T13:58:41;68.88;;;24.35;;
63818;SDS011;49970;54.976;73.248;2022-12-17T14:01:10;67.30;;;27.38;;
63818;SDS011;49970;54.976;73.248;2022-12-17T14:03:42;61.33;;;26.52;;
63818;SDS011;49970;54.976;73.248;2022-12-17T14:06:14;52.55;;;25.60;;
63818;SDS011;49970;54.976;73.248;2022-12-17T14:08:42;50.92;;;21.40;;
63818;SDS011;49970;54.976;73.248;2022-12-17T14:11:09;74.07;;;26.25;;
63818;SDS011;49970;54.976;73.248;2022-12-17T14:13:55;64.28;;;24.85;;
63818;SDS011;49970;54.976;73.248;2022-12-17T14:16:26;68.35;;;25.48;;
63818;SDS011;49970;54.976;73.248;2022-12-17T14:18:55;60.97;;;27.08;;
63818;SDS011;49970;54.976;73.248;2022-12-17T14:21:33;73.07;;;27.48;;
63818;SDS011;49970;54.976;73.248;2022-12-17T14:24:08;54.08;;;23.85;;
63818;SDS011;49970;54.976;73.248;2022-12-17T14:26:48;66.80;;;27.85;;
63818;SDS011;49970;54.976;73.248;2022-12-17T14:29:20;56.55;;;26.38;;
63818;SDS011;49970;54.976;73.248;2022-12-17T14:31:51;84.45;;;31.52;;
63818;SDS011;49970;54.976;73.248;2022-12-17T14:34:23;69.50;;;31.38;;
63818;SDS011;49970;54.976;73.248;2022-12-17T14:36:53;88.53;;;33.38;;
63818;SDS011;49970;54.976;73.248;2022-12-17T14:39:23;100.38;;;37.60;;
63818;SDS011;49970;54.976;73.248;2022-12-17T14:41:50;82.97;;;35.17;;
63818;SDS011;49970;54.976;73.248;2022-12-17T14:44:49;92.53;;;34.08;;
63818;SDS011;49970;54.976;73.248;2022-12-17T14:47:29;88.82;;;31.75;;
63818;SDS011;49970;54.976;73.248;2022-12-17T14:52:48;56.45;;;26.98;;
63818;SDS011;49970;54.976;73.248;2022-12-17T14:58:20;60.15;;;25.35;;
63818;SDS011;49970;54.976;73.248;2022-12-17T15:03:28;71.43;;;26.55;;
63818;SDS011;49970;54.976;73.248;2022-12-17T15:05:58;62.80;;;26.85;;
63818;SDS011;49970;54.976;73.248;2022-12-17T15:08:31;79.50;;;29.40;;
63818;SDS011;49970;54.976;73.248;2022-12-17T15:11:04;68.40;;;28.83;;
63818;SDS011;49970;54.976;73.248;2022-12-17T15:13:31;73.15;;;28.98;;
63818;SDS011;49970;54.976;73.248;2022-12-17T15:15:57;62.08;;;26.88;;
63818;SDS011;49970;54.976;73.248;2022-12-17T15:18:24;74.38;;;29.13;;
63818;SDS011;49970;54.976;73.248;2022-12-17T15:20:55;80.10;;;30.63;;
63818;SDS011;49970;54.976;73.248;2022-12-17T15:23:22;72.68;;;30.58;;
63818;SDS011;49970;54.976;73.248;2022-12-17T15:25:55;75.65;;;30.13;;
63818;SDS011;49970;54.976;73.248;2022-12-17T15:28:27;88.18;;;32.35;;
63818;SDS011;49970;54.976;73.248;2022-12-17T15:30:53;96.38;;;34.70;;
63818;SDS011;49970;54.976;73.248;2022-12-17T15:33:24;89.07;;;34.65;;
63818;SDS011;49970;54.976;73.248;2022-12-17T15:35:50;81.32;;;32.63;;
63818;SDS011;49970;54.976;73.248;2022-12-17T15:38:18;74.63;;;29.63;;
63818;SDS011;49970;54.976;73.248;2022-12-17T15:40:54;67.60;;;27.80;;
63818;SDS011;49970;54.976;73.248;2022-12-17T15:43:20;75.32;;;31.63;;
63818;SDS011;49970;54.976;73.248;2022-12-17T15:45:49;75.43;;;29.50;;
63818;SDS011;49970;54.976;73.248;2022-12-17T15:48:26;78.00;;;29.98;;
63818;SDS011;49970;54.976;73.248;2022-12-17T15:50:52;79.60;;;31.00;;
63818;SDS011;49970;54.976;73.248;2022-12-17T15:53:18;84.22;;;30.08;;
63818;SDS011;49970;54.976;73.248;2022-12-17T15:55:44;80.82;;;28.88;;
63818;SDS011;49970;54.976;73.248;2022-12-17T15:58:11;78.28;;;30.52;;
63818;SDS011;49970;54.976;73.248;2022-12-17T16:00:49;84.22;;;31.77;;
63818;SDS011;49970;54.976;73.248;2022-12-17T16:03:16;73.20;;;28.15;;
63818;SDS011;49970;54.976;73.248;2022-12-17T16:05:49;73.35;;;28.95;;
63818;SDS011;49970;54.976;73.248;2022-12-17T16:08:15;82.70;;;32.67;;
63818;SDS011;49970;54.976;73.248;2022-12-17T16:10:41;77.97;;;28.98;;
63818;SDS011;49970;54.976;73.248;2022-12-17T16:13:08;72.45;;;29.80;;
63818;SDS011;49970;54.976;73.248;2022-12-17T16:15:45;75.20;;;30.67;;
63818;SDS011;49970;54.976;73.248;2022-12-17T16:18:16;83.50;;;30.63;;
63818;SDS011;49970;54.976;73.248;2022-12-17T16:23:13;71.95;;;27.35;;
63818;SDS011;49970;54.976;73.248;2022-12-17T16:25:39;78.60;;;28.23;;
63818;SDS011;49970;54.976;73.248;2022-12-17T16:28:15;76.45;;;28.70;;
63818;SDS011;49970;54.976;73.248;2022-12-17T16:30:42;82.93;;;30.67;;
63818;SDS011;49970;54.976;73.248;2022-12-17T16:33:09;77.45;;;32.95;;
63818;SDS011;49970;54.976;73.248;2022-12-17T16:35:35;93.45;;;37.30;;
63818;SDS011;49970;54.976;73.248;2022-12-17T16:38:01;92.05;;;35.60;;
63818;SDS011;49970;54.976;73.248;2022-12-17T16:40:27;98.65;;;34.08;;
63818;SDS011;49970;54.976;73.248;2022-12-17T16:42:55;85.85;;;32.38;;
63818;SDS011;49970;54.976;73.248;2022-12-17T16:45:21;78.05;;;32.58;;
63818;SDS011;49970;54.976;73.248;2022-12-17T16:47:47;85.35;;;32.33;;
63818;SDS011;49970;54.976;73.248;2022-12-17T16:50:15;82.00;;;32.70;;
63818;SDS011;49970;54.976;73.248;2022-12-17T16:52:41;97.18;;;35.70;;
63818;SDS011;49970;54.976;73.248;2022-12-17T16:55:07;68.13;;;29.60;;
63818;SDS011;49970;54.976;73.248;2022-12-17T16:57:39;84.18;;;33.25;;
63818;SDS011;49970;54.976;73.248;2022-12-17T17:00:15;91.13;;;32.30;;
63818;SDS011;49970;54.976;73.248;2022-12-17T17:02:42;73.88;;;31.33;;
63818;SDS011;49970;54.976;73.248;2022-12-17T17:05:11;75.95;;;30.10;;
63818;SDS011;49970;54.976;73.248;2022-12-17T17:07:47;65.70;;;28.45;;
63818;SDS011;49970;54.976;73.248;2022-12-17T17:10:18;67.47;;;29.08;;
63818;SDS011;49970;54.976;73.248;2022-12-17T17:12:50;78.25;;;28.38;;